Time;durP1;ratioP1;P1;durP2;ratioP2;P2;SDS_P1;SDS_P2;PMS_P1;PMS_P2;Temp;Humidity;BMP_temperature;BMP_pressure;BME280_temperature;BME280_humidity;BME280_pressure;Samples;Min_cycle;Max_cycle;Signal;HPM_P1;HPM_P2
2023/01/15 07:50:25;;;;;;;40.50;26.70;;;1.30;99.90;;;;;;5091022;28;21020;-62
2023/01/15 07:52:51;;;;;;;43.55;27.02;;;2.90;99.90;;;;;;5091082;28;20021;-61
2023/01/15 07:55:17;;;;;;;37.05;25.23;;;5.40;99.90;;;;;;5091067;28;20097;-65
2023/01/15 07:57:43;;;;;;;35.83;26.90;;;7.80;99.90;;;;;;5089509;28;20028;-62
2023/01/15 08:00:15;;;;;;;34.83;24.90;;;9.00;97.10;;;;;;5091036;28;20024;-66
2023/01/15 08:02:41;;;;;;;38.78;26.45;;;9.00;93.10;;;;;;5090723;28;20023;-65
2023/01/15 08:05:08;;;;;;;34.30;26.98;;;9.70;93.60;;;;;;5090545;28;20028;-66
2023/01/15 08:07:41;;;;;;;106.10;64.97;;;11.20;88.90;;;;;;5090750;28;20462;-64
2023/01/15 08:10:10;;;;;;;152.88;92.30;;;12.10;74.70;;;;;;5090817;28;20041;-69
2023/01/15 08:15:20;;;;;;;108.65;70.60;;;11.30;74.30;;;;;;5090732;28;20046;-58
2023/01/15 08:17:48;;;;;;;126.10;89.10;;;11.70;75.30;;;;;;5090519;28;20473;-68
2023/01/15 08:20:25;;;;;;;86.28;63.33;;;12.30;70.90;;;;;;5090212;28;20024;-61
2023/01/15 08:22:51;;;;;;;99.95;76.40;;;11.70;70.20;;;;;;5090264;28;20020;-67
2023/01/15 08:25:20;;;;;;;87.78;65.82;;;11.40;70.80;;;;;;5090245;28;20123;-66
2023/01/15 08:27:46;;;;;;;78.25;60.17;;;11.50;71.50;;;;;;5090376;28;20020;-68
2023/01/15 08:30:17;;;;;;;89.63;70.55;;;11.70;71.20;;;;;;5090449;28;20025;-69
2023/01/15 08:32:43;;;;;;;68.65;54.55;;;11.60;68.60;;;;;;5090486;28;20025;-65
2023/01/15 08:35:09;;;;;;;67.00;52.13;;;11.20;70.70;;;;;;5089912;28;20051;-65
2023/01/15 08:37:35;;;;;;;83.68;63.92;;;10.80;72.00;;;;;;5090227;28;20056;-62
2023/01/15 08:40:01;;;;;;;104.32;79.68;;;11.50;72.50;;;;;;5090076;28;20024;-60
2023/01/15 08:42:27;;;;;;;98.88;79.38;;;11.00;70.80;;;;;;5089959;28;20071;-67
2023/01/15 08:44:52;;;;;;;87.22;70.85;;;10.30;71.60;;;;;;5089762;28;20028;-70
2023/01/15 08:47:18;;;;;;;120.70;90.32;;;9.50;75.20;;;;;;5090143;28;20027;-67
2023/01/15 08:49:46;;;;;;;87.10;70.38;;;9.00;77.50;;;;;;5089407;28;20055;-67
2023/01/15 08:52:13;;;;;;;95.50;71.70;;;8.50;81.50;;;;;;5089661;28;20500;-63
2023/01/15 08:54:38;;;;;;;88.47;68.47;;;8.40;84.00;;;;;;5089845;28;20033;-64
2023/01/15 08:57:04;;;;;;;91.22;71.35;;;8.50;87.80;;;;;;5089623;28;20390;-65
2023/01/15 08:59:30;;;;;;;94.13;73.38;;;8.70;90.00;;;;;;5086916;28;20078;-64
2023/01/15 09:01:56;;;;;;;85.90;67.22;;;9.00;90.00;;;;;;5076001;28;20028;-62
2023/01/15 09:04:22;;;;;;;80.35;63.08;;;9.00;90.40;;;;;;5076140;28;20017;-65
2023/01/15 09:06:48;;;;;;;109.15;83.10;;;8.90;91.30;;;;;;5075993;28;20024;-61
2023/01/15 09:09:15;;;;;;;104.03;76.50;;;9.50;91.00;;;;;;5075944;28;20573;-63
2023/01/15 09:11:40;;;;;;;94.60;75.13;;;10.20;90.90;;;;;;5076225;28;20039;-68
2023/01/15 09:14:07;;;;;;;94.72;74.20;;;10.60;85.40;;;;;;5076302;28;20107;-67
2023/01/15 09:16:34;;;;;;;79.07;64.18;;;10.40;84.70;;;;;;5075671;28;20021;-68
2023/01/15 09:19:00;;;;;;;86.22;66.32;;;10.20;87.90;;;;;;5075670;28;20033;-62
2023/01/15 09:21:26;;;;;;;79.40;63.13;;;10.00;88.00;;;;;;5075784;28;20029;-65
2023/01/15 09:23:51;;;;;;;102.78;76.72;;;9.90;89.60;;;;;;5075921;28;20029;-65
2023/01/15 09:26:35;;;;;;;124.60;90.07;;;9.70;92.60;;;;;;5075708;28;20024;-65
2023/01/15 09:29:01;;;;;;;151.43;103.47;;;9.50;92.30;;;;;;5075514;28;20037;-58
2023/01/15 09:31:28;;;;;;;140.23;103.93;;;9.40;94.60;;;;;;5075541;28;20028;-69
2023/01/15 09:33:54;;;;;;;152.23;113.28;;;9.60;95.90;;;;;;5075318;28;20024;-63
2023/01/15 09:36:31;;;;;;;179.45;133.60;;;9.90;95.20;;;;;;5075726;28;20017;-64
2023/01/15 09:38:58;;;;;;;166.25;130.63;;;10.20;94.60;;;;;;5075369;28;20034;-65
2023/01/15 09:44:19;;;;;;;168.60;129.50;;;10.60;93.60;;;;;;5075648;28;20405;-63
2023/01/15 09:47:00;;;;;;;172.32;132.77;;;10.90;93.50;;;;;;5075148;28;20032;-67
2023/01/15 09:49:44;;;;;;;155.02;126.35;;;11.20;92.00;;;;;;5074970;28;20052;-68
2023/01/15 09:52:44;;;;;;;145.27;119.38;;;11.50;92.00;;;;;;5075106;28;20020;-67
2023/01/15 09:55:17;;;;;;;144.98;120.35;;;11.90;91.70;;;;;;5075149;28;20505;-68
2023/01/15 09:57:45;;;;;;;;;;;12.40;88.90;;;;;;5075790;28;20478;-67
2023/01/15 10:00:19;;;;;;;133.05;107.78;;;12.70;83.90;;;;;;5075200;28;19905;-61
2023/01/15 10:02:57;;;;;;;89.25;75.15;;;12.90;86.40;;;;;;5074756;28;20012;-63
2023/01/15 10:05:39;;;;;;;76.25;64.68;;;13.00;81.80;;;;;;5074849;28;20068;-70
2023/01/15 10:08:21;;;;;;;71.60;60.92;;;13.10;81.70;;;;;;5074647;28;20104;-67
2023/01/15 10:10:55;;;;;;;77.20;63.30;;;13.30;78.20;;;;;;5074830;28;20024;-63
2023/01/15 10:13:42;;;;;;;100.30;74.28;;;13.40;77.30;;;;;;5073972;28;20055;-71
2023/01/15 10:16:12;;;;;;;78.28;62.88;;;13.50;79.50;;;;;;5074427;28;20116;-64
2023/01/15 10:18:41;;;;;;;76.47;61.63;;;13.50;78.60;;;;;;5074409;28;20536;-61
2023/01/15 10:21:19;;;;;;;65.50;56.75;;;13.60;77.90;;;;;;5074541;28;20075;-65
2023/01/15 10:24:11;;;;;;;65.90;58.22;;;13.90;77.70;;;;;;5074434;28;20025;-69
2023/01/15 10:26:39;;;;;;;71.45;61.15;;;14.00;77.20;;;;;;5074399;28;20032;-66
2023/01/15 10:29:23;;;;;;;81.97;72.60;;;14.20;76.80;;;;;;5074625;28;20031;-68
2023/01/15 10:31:59;;;;;;;107.90;91.88;;;14.30;75.50;;;;;;5074189;28;20070;-70
2023/01/15 10:34:47;;;;;;;129.70;106.05;;;14.60;76.00;;;;;;5074231;28;20092;-69
2023/01/15 10:37:20;;;;;;;120.97;98.28;;;14.80;75.70;;;;;;5074260;28;20094;-70
2023/01/15 10:39:53;;;;;;;122.45;101.30;;;14.90;72.20;;;;;;5074079;28;20161;-64
2023/01/15 10:42:47;;;;;;;109.18;93.20;;;15.10;74.30;;;;;;5074359;28;20037;-66
2023/01/15 10:45:23;;;;;;;113.68;96.57;;;15.20;71.30;;;;;;5074152;28;20020;-64
2023/01/15 10:47:56;;;;;;;104.57;90.03;;;15.50;70.10;;;;;;5073770;28;20021;-65
2023/01/15 10:50:23;;;;;;;;;;;15.70;70.50;;;;;;5074757;28;20020;-62
2023/01/15 10:53:21;;;;;;;95.95;84.45;;;15.80;69.30;;;;;;5073947;28;19958;-71
2023/01/15 10:55:56;;;;;;;91.95;79.70;;;15.90;67.70;;;;;;5073836;28;20471;-62
2023/01/15 10:58:33;;;;;;;83.95;74.93;;;16.00;68.00;;;;;;5073731;28;20036;-66
2023/01/15 11:01:04;;;;;;;80.85;70.50;;;16.00;65.80;;;;;;5073816;28;20107;-62
2023/01/15 11:03:38;;;;;;;81.07;71.55;;;16.00;65.80;;;;;;5073711;28;20020;-70
2023/01/15 11:06:10;;;;;;;85.85;76.60;;;16.20;65.90;;;;;;5073892;28;20061;-65
2023/01/15 11:08:39;;;;;;;85.88;76.38;;;16.30;65.70;;;;;;5073958;28;20028;-62
2023/01/15 11:11:17;;;;;;;80.40;71.82;;;16.40;64.80;;;;;;5073620;28;20405;-62
2023/01/15 11:19:36;;;;;;;70.55;62.95;;;16.20;64.90;;;;;;5073580;28;20094;-69
2023/01/15 11:22:08;;;;;;;69.53;62.00;;;16.20;65.20;;;;;;5073720;28;20023;-65
2023/01/15 11:24:37;;;;;;;65.00;57.13;;;16.10;64.30;;;;;;5073238;28;20409;-64
2023/01/15 11:27:05;;;;;;;69.50;61.88;;;16.20;64.20;;;;;;5073320;28;20103;-66
2023/01/15 11:29:35;;;;;;;65.72;58.70;;;16.50;63.30;;;;;;5073551;28;20032;-64
2023/01/15 11:32:01;;;;;;;68.70;61.15;;;16.50;63.80;;;;;;5073718;28;20101;-68
2023/01/15 11:34:27;;;;;;;72.68;63.45;;;16.60;62.20;;;;;;5073289;28;20477;-65
2023/01/15 11:37:11;;;;;;;61.83;55.13;;;16.60;62.80;;;;;;5073684;28;20538;-65
2023/01/15 11:39:36;;;;;;;65.35;58.20;;;16.60;64.10;;;;;;5073218;28;20043;-65
2023/01/15 11:51:06;;;;;;;62.78;56.10;;;17.00;62.50;;;;;;5073541;28;20027;-67
2023/01/15 11:53:41;;;;;;;64.40;57.67;;;16.90;61.10;;;;;;5070388;28;20150;-70
2023/01/15 11:56:12;;;;;;;66.90;59.80;;;17.10;60.40;;;;;;5073309;28;20386;-68
2023/01/15 11:58:46;;;;;;;60.33;53.95;;;17.30;59.00;;;;;;5072805;28;20116;-68
2023/01/15 12:01:40;;;;;;;53.45;47.75;;;17.30;57.50;;;;;;5073574;28;20127;-61
2023/01/15 12:04:22;;;;;;;50.92;45.65;;;17.40;57.80;;;;;;5073435;28;20036;-63
2023/01/15 12:06:48;;;;;;;46.17;41.47;;;17.30;59.10;;;;;;5072990;28;20024;-67
2023/01/15 12:09:29;;;;;;;43.42;38.63;;;17.30;58.90;;;;;;5072977;28;20025;-64
2023/01/15 12:12:23;;;;;;;43.45;38.85;;;17.10;56.30;;;;;;5072854;28;20021;-62
2023/01/15 12:15:22;;;;;;;43.58;39.15;;;17.20;57.70;;;;;;5072783;28;20082;-65
2023/01/15 12:18:06;;;;;;;38.83;34.90;;;17.30;60.00;;;;;;5072594;28;20116;-60
2023/01/15 12:20:31;;;;;;;;;;;17.50;61.30;;;;;;5073383;28;20021;-69
2023/01/15 12:23:24;;;;;;;80.78;69.70;;;17.50;58.10;;;;;;5072907;28;19908;-65
2023/01/15 12:25:57;;;;;;;123.30;94.03;;;16.90;58.40;;;;;;5072643;28;20386;-67
2023/01/15 12:28:27;;;;;;;88.35;73.22;;;16.10;60.00;;;;;;5072931;28;20086;-63
2023/01/15 12:31:05;;;;;;;86.60;74.57;;;15.60;60.80;;;;;;5072885;28;20023;-62
2023/01/15 12:34:09;;;;;;;74.80;63.15;;;15.40;62.00;;;;;;5072811;28;20024;-68
2023/01/15 12:37:08;;;;;;;73.20;62.25;;;15.00;61.90;;;;;;5063813;28;20120;-69
2023/01/15 12:39:52;;;;;;;73.78;64.15;;;14.50;63.40;;;;;;5076444;28;20036;-63
2023/01/15 12:45:13;;;;;;;72.95;60.13;;;14.30;64.80;;;;;;5076670;28;20394;-68
2023/01/15 12:48:04;;;;;;;60.75;52.50;;;14.30;68.30;;;;;;5076198;28;20013;-65
2023/01/15 12:50:44;;;;;;;58.83;52.05;;;14.30;66.40;;;;;;5076608;28;20115;-66
2023/01/15 12:53:37;;;;;;;58.92;50.53;;;14.20;66.80;;;;;;5076305;28;20027;-62
2023/01/15 12:56:13;;;;;;;70.27;59.73;;;14.00;68.00;;;;;;5076211;28;20489;-70
2023/01/15 12:59:37;;;;;;;85.60;71.35;;;13.90;68.50;;;;;;5076021;28;20037;-65
2023/01/15 13:02:11;;;;;;;69.67;58.80;;;13.80;71.10;;;;;;5041063;28;20044;-67
2023/01/15 13:04:37;;;;;;;71.60;61.13;;;13.80;70.40;;;;;;5076141;28;20033;-68
2023/01/15 13:07:20;;;;;;;68.18;57.60;;;13.80;71.30;;;;;;5076020;28;20021;-61
2023/01/15 13:09:51;;;;;;;63.03;56.25;;;13.80;71.60;;;;;;5075900;28;20103;-67
2023/01/15 13:12:17;;;;;;;66.07;57.33;;;13.70;72.10;;;;;;5076142;28;20103;-69
2023/01/15 13:14:45;;;;;;;64.43;54.55;;;13.70;72.20;;;;;;5075994;28;20538;-66
2023/01/15 13:17:22;;;;;;;62.90;56.22;;;13.70;72.70;;;;;;5075963;28;20037;-71
2023/01/15 13:20:25;;;;;;;61.13;53.17;;;13.60;73.70;;;;;;5075756;28;20062;-69
2023/01/15 13:23:04;;;;;;;57.95;51.58;;;13.50;73.40;;;;;;5075633;28;20070;-62
2023/01/15 13:26:00;;;;;;;107.80;83.63;;;13.20;75.70;;;;;;5075590;28;20142;-68
2023/01/15 13:28:50;;;;;;;166.00;118.45;;;13.00;76.30;;;;;;5073411;28;20039;-66
2023/01/15 13:31:37;;;;;;;326.27;211.32;;;12.90;78.10;;;;;;5075651;28;20074;-69
2023/01/15 13:34:12;;;;;;;368.25;227.10;;;12.90;78.50;;;;;;5075651;28;20493;-63
2023/01/15 13:36:44;;;;;;;388.10;229.55;;;13.00;78.60;;;;;;5075784;28;20511;-69
2023/01/15 13:39:17;;;;;;;218.75;142.25;;;13.00;79.10;;;;;;5075546;28;20355;-64
2023/01/15 13:44:37;;;;;;;413.00;319.55;;;13.00;80.60;;;;;;5075506;28;20066;-67
2023/01/15 13:47:06;;;;;;;493.92;385.80;;;12.80;81.50;;;;;;5075154;28;20048;-61
2023/01/15 13:49:39;;;;;;;500.92;391.45;;;12.70;80.70;;;;;;5075232;28;20132;-68
2023/01/15 13:52:18;;;;;;;482.65;393.33;;;12.70;80.80;;;;;;5075218;28;20520;-72
2023/01/15 13:54:43;;;;;;;367.73;301.23;;;12.40;80.20;;;;;;5075127;28;20027;-66
2023/01/15 13:57:34;;;;;;;214.18;185.27;;;12.30;81.50;;;;;;5075166;28;20024;-68
2023/01/15 14:00:03;;;;;;;108.85;97.50;;;12.10;83.40;;;;;;5075040;28;20039;-65
2023/01/15 14:02:31;;;;;;;70.82;63.35;;;12.10;81.70;;;;;;5075013;28;20060;-62
2023/01/15 14:04:57;;;;;;;65.72;58.30;;;12.10;82.00;;;;;;5075052;28;20075;-63
2023/01/15 14:07:36;;;;;;;61.60;53.72;;;12.10;81.60;;;;;;5074846;28;20029;-67
2023/01/15 14:10:18;;;;;;;59.65;49.90;;;11.80;83.10;;;;;;5074875;28;20058;-63
2023/01/15 14:12:43;;;;;;;55.47;47.88;;;11.60;84.80;;;;;;5075267;28;20524;-63
2023/01/15 14:15:35;;;;;;;45.47;40.50;;;11.50;85.00;;;;;;5074718;28;20020;-68
2023/01/15 14:18:25;;;;;;;40.58;34.95;;;11.40;84.70;;;;;;5074510;28;20442;-66
2023/01/15 14:21:19;;;;;;;56.65;45.25;;;11.20;85.70;;;;;;5074712;28;20029;-69
2023/01/15 14:23:59;;;;;;;96.07;61.42;;;11.00;86.60;;;;;;5074768;28;20024;-70
2023/01/15 14:26:39;;;;;;;144.48;90.60;;;10.90;87.60;;;;;;5074912;28;20021;-66
2023/01/15 14:29:43;;;;;;;127.18;81.55;;;10.90;89.20;;;;;;5074452;28;20031;-71
2023/01/15 14:32:30;;;;;;;92.75;66.28;;;10.80;89.70;;;;;;5074378;28;20078;-63
2023/01/15 14:34:58;;;;;;;108.57;72.90;;;10.70;90.70;;;;;;5074362;28;20021;-66
2023/01/15 14:37:45;;;;;;;105.85;67.97;;;10.60;91.10;;;;;;5074421;28;20028;-63
2023/01/15 14:40:28;;;;;;;102.75;69.82;;;10.60;91.10;;;;;;5074349;28;20029;-70
2023/01/15 14:43:04;;;;;;;116.32;81.90;;;10.40;92.80;;;;;;5074563;28;20025;-69
2023/01/15 14:45:39;;;;;;;117.72;82.75;;;10.50;93.80;;;;;;5074195;28;20024;-61
2023/01/15 14:48:28;;;;;;;115.43;76.15;;;10.60;92.70;;;;;;5073907;28;20090;-67
2023/01/15 14:51:07;;;;;;;102.32;66.97;;;10.50;93.90;;;;;;5070391;28;20070;-61
2023/01/15 14:53:49;;;;;;;88.05;61.97;;;10.40;94.20;;;;;;5074102;28;20028;-63
2023/01/15 14:56:50;;;;;;;113.78;85.60;;;10.50;92.90;;;;;;5074181;28;20051;-62
2023/01/15 14:59:48;;;;;;;98.68;78.90;;;10.50;93.30;;;;;;5072102;28;20080;-64
2023/01/15 15:02:22;;;;;;;72.05;63.53;;;10.50;93.60;;;;;;5074166;28;20069;-73
2023/01/15 15:04:55;;;;;;;103.47;86.47;;;10.40;93.10;;;;;;5073916;28;20025;-65
2023/01/15 15:07:24;;;;;;;76.50;68.03;;;10.30;94.10;;;;;;5073709;28;20482;-61
2023/01/15 15:10:11;;;;;;;77.93;69.32;;;10.30;93.10;;;;;;5073762;28;20039;-66
2023/01/15 15:12:56;;;;;;;73.68;61.33;;;10.40;92.90;;;;;;5073878;28;20025;-63
2023/01/15 15:15:24;;;;;;;54.95;46.38;;;10.30;92.90;;;;;;5073791;28;20029;-67
2023/01/15 15:18:17;;;;;;;73.40;57.13;;;10.30;91.10;;;;;;5073768;28;20489;-61
2023/01/15 15:20:57;;;;;;;111.63;83.75;;;10.30;91.80;;;;;;5073422;28;20107;-66
2023/01/15 15:23:45;;;;;;;109.90;79.10;;;10.20;93.30;;;;;;5073731;28;20028;-71
2023/01/15 15:26:20;;;;;;;77.13;58.05;;;9.90;93.50;;;;;;5073965;28;20105;-62
2023/01/15 15:29:02;;;;;;;97.60;73.32;;;9.90;93.30;;;;;;5073516;28;20025;-66
2023/01/15 15:31:31;;;;;;;74.43;60.20;;;9.90;93.60;;;;;;5073858;28;20044;-68
2023/01/15 15:33:58;;;;;;;79.63;61.45;;;10.00;92.00;;;;;;5073627;28;20087;-71
2023/01/15 15:36:27;;;;;;;89.97;71.32;;;10.10;92.30;;;;;;5073341;28;20031;-73
2023/01/15 15:39:14;;;;;;;102.15;80.15;;;9.90;92.90;;;;;;5073442;28;20031;-65
2023/01/15 15:50:22;;;;;;;146.00;100.20;;;9.10;97.30;;;;;;5073473;28;20050;-71
2023/01/15 15:52:51;;;;;;;164.15;112.05;;;9.00;98.40;;;;;;5073314;28;20077;-61
2023/01/15 15:55:19;;;;;;;157.10;110.10;;;9.00;98.50;;;;;;5072330;28;20032;-69
2023/01/15 15:57:57;;;;;;;139.98;101.55;;;8.90;99.10;;;;;;5073519;28;20017;-69
2023/01/15 16:00:31;;;;;;;155.50;113.97;;;8.90;99.80;;;;;;5073301;28;20028;-67
2023/01/15 16:03:02;;;;;;;144.38;107.38;;;8.80;99.90;;;;;;5073398;28;20534;-69
2023/01/15 16:05:30;;;;;;;123.10;96.75;;;8.80;99.90;;;;;;5073126;28;20029;-66
2023/01/15 16:08:17;;;;;;;124.10;93.22;;;8.80;99.90;;;;;;5073265;28;20086;-65
2023/01/15 16:10:46;;;;;;;131.80;101.47;;;8.80;99.90;;;;;;5075230;28;20095;-67
2023/01/15 16:13:24;;;;;;;129.30;97.78;;;8.70;99.90;;;;;;5077145;28;20016;-66
2023/01/15 16:15:52;;;;;;;115.35;85.07;;;8.70;99.90;;;;;;5077340;28;20044;-70
2023/01/15 16:18:27;;;;;;;110.05;82.47;;;8.60;99.90;;;;;;5076799;28;20470;-65
2023/01/15 16:20:55;;;;;;;140.35;102.38;;;8.70;99.90;;;;;;5077111;28;20021;-68
2023/01/15 16:23:27;;;;;;;128.32;92.68;;;8.60;99.90;;;;;;5077265;28;20017;-62
2023/01/15 16:26:24;;;;;;;127.85;89.50;;;8.50;99.90;;;;;;5076827;28;20040;-68
2023/01/15 16:28:53;;;;;;;148.38;102.90;;;8.60;99.90;;;;;;5075510;28;20111;-69
2023/01/15 16:31:21;;;;;;;199.77;141.10;;;8.70;99.90;;;;;;5077049;28;20117;-65
2023/01/15 16:33:55;;;;;;;207.98;146.98;;;8.70;99.90;;;;;;5076788;28;20432;-65
2023/01/15 16:36:22;;;;;;;229.48;166.70;;;8.70;99.90;;;;;;5076743;28;20074;-68
2023/01/15 16:38:50;;;;;;;242.57;176.05;;;8.60;99.90;;;;;;5076867;28;20032;-65
2023/01/15 16:41:26;;;;;;;250.32;180.52;;;8.70;99.90;;;;;;5076583;28;20017;-61
2023/01/15 16:43:57;;;;;;;215.30;156.55;;;8.60;99.90;;;;;;5076585;28;20028;-64
2023/01/15 16:46:25;;;;;;;183.60;132.82;;;8.70;99.90;;;;;;5076384;28;20020;-67
2023/01/15 16:49:19;;;;;;;165.35;123.50;;;8.90;99.90;;;;;;5076133;28;20052;-68
2023/01/15 16:51:45;;;;;;;164.07;122.47;;;9.00;99.90;;;;;;5076454;28;20028;-60
2023/01/15 16:54:30;;;;;;;149.43;113.50;;;9.00;99.90;;;;;;5076510;28;20404;-67
2023/01/15 16:57:02;;;;;;;147.73;107.82;;;8.90;99.90;;;;;;5076456;28;20111;-61
2023/01/15 16:59:27;;;;;;;165.05;116.70;;;8.90;99.90;;;;;;5076161;28;20033;-68
2023/01/15 17:02:16;;;;;;;193.80;143.73;;;8.90;99.90;;;;;;5076183;28;20043;-68
2023/01/15 17:04:44;;;;;;;169.55;128.48;;;8.80;99.90;;;;;;5076454;28;20351;-65
2023/01/15 17:07:12;;;;;;;164.48;124.80;;;8.70;99.90;;;;;;5076054;28;20104;-70
2023/01/15 17:09:53;;;;;;;175.57;133.85;;;8.70;99.90;;;;;;5076185;28;20107;-66
2023/01/15 17:12:28;;;;;;;159.07;121.07;;;8.60;99.90;;;;;;5076024;28;20017;-62
2023/01/15 17:14:53;;;;;;;164.13;120.13;;;8.60;99.90;;;;;;5076294;28;20025;-65
2023/01/15 17:17:22;;;;;;;139.23;107.50;;;8.50;99.90;;;;;;5075642;28;20123;-65
2023/01/15 17:19:49;;;;;;;142.52;108.60;;;8.50;99.90;;;;;;5075691;28;20449;-65
2023/01/15 17:22:27;;;;;;;152.18;113.47;;;8.50;99.90;;;;;;5075536;28;20063;-68
2023/01/15 17:24:55;;;;;;;138.38;103.07;;;8.50;99.90;;;;;;5075793;28;20020;-69
2023/01/15 17:27:22;;;;;;;127.55;94.07;;;8.40;99.90;;;;;;5075819;28;20032;-62
2023/01/15 17:29:48;;;;;;;106.13;81.70;;;8.40;99.90;;;;;;5075793;28;20021;-65
2023/01/15 17:32:16;;;;;;;104.50;77.75;;;8.50;99.90;;;;;;5075585;28;20024;-68
2023/01/15 17:34:42;;;;;;;109.70;81.35;;;8.80;99.90;;;;;;5075671;28;20024;-65
2023/01/15 17:37:08;;;;;;;83.78;64.88;;;8.90;99.90;;;;;;5075894;28;20099;-70
2023/01/15 17:39:34;;;;;;;83.18;61.00;;;9.00;99.90;;;;;;5075458;28;20382;-66
2023/01/15 17:41:59;;;;;;;77.10;58.90;;;9.10;99.90;;;;;;5075742;28;20025;-64
2023/01/15 17:44:25;;;;;;;79.03;58.60;;;9.20;99.90;;;;;;5075597;28;20483;-67
2023/01/15 17:46:51;;;;;;;81.40;59.05;;;9.30;99.90;;;;;;5075442;28;20032;-66
2023/01/15 17:49:16;;;;;;;78.70;57.42;;;9.30;99.60;;;;;;5075245;28;20146;-64
2023/01/15 17:51:42;;;;;;;63.03;49.65;;;9.20;98.80;;;;;;5075599;28;20017;-66
2023/01/15 17:54:08;;;;;;;74.18;55.65;;;9.20;98.80;;;;;;5075240;28;20112;-68
2023/01/15 18:07:40;;;;;;;177.68;108.97;;;8.70;99.90;;;;;;5075463;28;20035;-66
2023/01/15 18:10:09;;;;;;;219.43;126.07;;;8.80;99.90;;;;;;5074787;28;20032;-66
2023/01/15 18:12:34;;;;;;;419.70;253.85;;;8.90;99.90;;;;;;5075111;28;20063;-66
2023/01/15 18:15:00;;;;;;;328.10;195.93;;;8.90;99.90;;;;;;5074693;28;20021;-67
2023/01/15 18:17:27;;;;;;;374.73;227.57;;;8.80;99.90;;;;;;5074597;28;20052;-65
2023/01/15 18:19:53;;;;;;;338.42;209.40;;;8.80;99.90;;;;;;5074973;28;20123;-65
2023/01/15 18:22:19;;;;;;;297.55;182.30;;;8.90;99.90;;;;;;5074726;28;20518;-65
2023/01/15 18:24:45;;;;;;;225.15;137.95;;;8.90;99.90;;;;;;5073442;28;20109;-68
2023/01/15 18:27:11;;;;;;;177.70;113.70;;;8.90;99.10;;;;;;5074670;28;20103;-65
2023/01/15 18:29:39;;;;;;;160.30;101.72;;;9.00;98.70;;;;;;5074442;28;20056;-66
2023/01/15 18:32:08;;;;;;;133.05;87.95;;;9.00;98.60;;;;;;5074105;28;20100;-72
2023/01/15 18:34:35;;;;;;;114.45;74.20;;;9.00;98.20;;;;;;5074233;28;20378;-62
2023/01/15 18:37:01;;;;;;;108.55;71.32;;;9.00;97.80;;;;;;5074763;28;20440;-66
2023/01/15 18:39:28;;;;;;;96.90;66.95;;;9.00;97.80;;;;;;5074065;28;20036;-62
2023/01/15 18:47:11;;;;;;;80.82;54.92;;;9.00;98.00;;;;;;5074330;28;20066;-68
2023/01/15 18:49:39;;;;;;;82.70;56.63;;;9.00;98.20;;;;;;5073948;28;20068;-70
2023/01/15 18:54:48;;;;;;;82.82;61.33;;;9.00;98.10;;;;;;5074441;28;20074;-65
2023/01/15 18:57:15;;;;;;;81.43;56.08;;;8.90;97.80;;;;;;5074198;28;20417;-69
2023/01/15 18:59:42;;;;;;;75.68;54.13;;;8.90;98.30;;;;;;5073689;28;20039;-67
2023/01/15 19:02:08;;;;;;;81.97;56.33;;;8.90;98.20;;;;;;5074048;28;20029;-65
2023/01/15 19:04:34;;;;;;;62.97;45.95;;;8.90;97.80;;;;;;5074272;28;20025;-63
2023/01/15 19:07:02;;;;;;;68.75;49.35;;;8.90;98.50;;;;;;5073744;28;20024;-63
2023/01/15 19:09:28;;;;;;;65.93;47.53;;;8.90;97.90;;;;;;5073884;28;20021;-66
2023/01/15 19:11:54;;;;;;;58.80;44.90;;;8.90;97.90;;;;;;5074113;28;20024;-69
2023/01/15 19:20:12;;;;;;;63.40;45.92;;;9.00;97.70;;;;;;5031708;28;20036;-63
2023/01/15 19:25:22;;;;;;;53.30;39.78;;;8.90;97.10;;;;;;5057259;28;20386;-69
2023/01/15 19:27:49;;;;;;;51.42;38.40;;;9.00;96.30;;;;;;5073630;28;20024;-63
2023/01/15 19:30:15;;;;;;;48.55;35.03;;;9.00;95.40;;;;;;5073585;28;20059;-64
2023/01/15 19:32:41;;;;;;;48.53;36.55;;;9.00;95.60;;;;;;5073592;28;20078;-64
2023/01/15 19:35:07;;;;;;;48.20;36.47;;;9.00;94.90;;;;;;5073547;28;20048;-69
2023/01/15 19:37:38;;;;;;;43.03;32.42;;;9.10;95.00;;;;;;5073588;28;20024;-64
2023/01/15 19:50:57;;;;;;;93.05;64.00;;;9.10;96.20;;;;;;5073632;28;20086;-65
2023/01/15 19:53:23;;;;;;;68.13;48.47;;;9.00;96.40;;;;;;5073643;28;20032;-62
2023/01/15 19:55:49;;;;;;;78.40;56.17;;;8.90;97.10;;;;;;5073206;28;20020;-68
2023/01/15 19:58:15;;;;;;;73.47;52.88;;;8.80;97.30;;;;;;5073226;28;20081;-67
2023/01/15 20:00:43;;;;;;;84.38;58.05;;;8.80;97.40;;;;;;5073447;28;20021;-69
2023/01/15 20:03:12;;;;;;;76.70;54.08;;;8.80;97.70;;;;;;5073214;28;20042;-60
2023/01/15 20:05:39;;;;;;;97.78;65.88;;;8.80;97.40;;;;;;5073416;28;20442;-68
2023/01/15 20:08:05;;;;;;;78.13;55.33;;;8.80;97.60;;;;;;5073056;28;20082;-66
2023/01/15 20:10:33;;;;;;;75.82;53.10;;;8.70;97.80;;;;;;5073062;28;20430;-65
2023/01/15 20:15:44;;;;;;;;;;;8.70;98.30;;;;;;5073802;28;20031;-69
2023/01/15 20:18:10;;;;;;;83.65;57.33;;;8.60;98.40;;;;;;5071751;28;20270;-65
2023/01/15 20:20:37;;;;;;;102.53;68.88;;;8.60;98.80;;;;;;5073003;28;20027;-66
2023/01/15 20:23:03;;;;;;;81.05;57.22;;;8.50;98.70;;;;;;5073391;28;20024;-65
2023/01/15 20:25:29;;;;;;;95.22;65.43;;;8.50;99.10;;;;;;5073105;28;20044;-60
2023/01/15 20:27:57;;;;;;;120.25;81.95;;;8.50;99.10;;;;;;5072936;28;20013;-66
2023/01/15 20:30:23;;;;;;;167.02;108.13;;;8.30;99.80;;;;;;5072982;28;20036;-68
2023/01/15 20:32:51;;;;;;;255.10;182.07;;;8.10;99.90;;;;;;5073250;28;20025;-67
2023/01/15 20:35:21;;;;;;;178.18;126.20;;;7.90;99.90;;;;;;5072912;28;20033;-65
2023/01/15 20:37:50;;;;;;;152.02;106.50;;;7.80;99.90;;;;;;5072860;28;20064;-68
2023/01/15 20:40:19;;;;;;;137.27;93.80;;;7.90;99.90;;;;;;5072809;28;20434;-68
2023/01/15 20:45:29;;;;;;;103.25;71.18;;;8.20;99.90;;;;;;5073168;28;20032;-64
2023/01/15 20:50:42;;;;;;;119.68;82.72;;;8.30;99.90;;;;;;5072943;28;20039;-67
2023/01/15 20:53:09;;;;;;;93.35;65.75;;;8.20;99.90;;;;;;5072472;28;20023;-68
2023/01/15 20:55:39;;;;;;;94.40;62.60;;;8.10;99.90;;;;;;5072884;28;20013;-69
2023/01/15 20:58:06;;;;;;;89.80;62.00;;;8.10;99.90;;;;;;5076464;28;20485;-62
2023/01/15 21:00:33;;;;;;;82.20;59.08;;;8.10;99.90;;;;;;5076267;28;20036;-64
2023/01/15 21:03:02;;;;;;;90.20;61.92;;;8.10;99.90;;;;;;5076580;28;20096;-66
2023/01/15 21:05:29;;;;;;;83.00;55.67;;;8.10;99.90;;;;;;5076312;28;20071;-65
2023/01/15 21:07:55;;;;;;;75.80;53.60;;;8.10;99.90;;;;;;5076003;28;20020;-65
2023/01/15 21:10:23;;;;;;;73.47;50.78;;;8.10;99.90;;;;;;5075846;28;20035;-65
2023/01/15 21:12:50;;;;;;;73.75;51.65;;;8.00;99.90;;;;;;5076060;28;20025;-62
2023/01/15 21:15:17;;;;;;;94.32;63.75;;;8.10;99.90;;;;;;5075893;28;20162;-71
2023/01/15 21:17:43;;;;;;;98.03;67.32;;;8.00;99.90;;;;;;5076000;28;20020;-63
2023/01/15 21:20:12;;;;;;;77.18;53.05;;;8.00;99.90;;;;;;5076035;28;20051;-66
2023/01/15 21:22:38;;;;;;;78.95;55.50;;;7.90;99.90;;;;;;5075832;28;20021;-63
2023/01/15 21:25:05;;;;;;;74.68;53.53;;;8.00;99.90;;;;;;5075909;28;20360;-63
2023/01/15 21:27:33;;;;;;;73.55;53.13;;;8.00;99.90;;;;;;5075814;28;20024;-65
2023/01/15 21:29:59;;;;;;;89.97;60.70;;;8.10;99.90;;;;;;5075762;28;20120;-63
2023/01/15 21:32:24;;;;;;;111.57;72.68;;;8.00;99.90;;;;;;5075853;28;20056;-67
2023/01/15 21:34:50;;;;;;;92.38;60.08;;;8.00;99.90;;;;;;5075789;28;20020;-64
2023/01/15 21:37:16;;;;;;;87.47;57.97;;;7.90;99.90;;;;;;5075340;28;20402;-64
2023/01/15 21:39:42;;;;;;;77.32;52.05;;;7.90;99.90;;;;;;5076067;28;20024;-62
2023/01/15 21:45:05;;;;;;;76.10;51.33;;;8.00;99.90;;;;;;5076089;28;20032;-64
2023/01/15 21:47:31;;;;;;;71.25;48.88;;;8.00;99.90;;;;;;5075042;28;20025;-63
2023/01/15 21:49:58;;;;;;;74.13;51.90;;;8.00;99.90;;;;;;5075003;28;20420;-69
2023/01/15 21:52:23;;;;;;;80.82;58.42;;;8.00;99.90;;;;;;5075609;28;20030;-70
2023/01/15 21:54:51;;;;;;;80.35;55.50;;;8.00;99.90;;;;;;5075798;28;20108;-70
2023/01/15 21:57:21;;;;;;;70.35;52.08;;;7.90;99.90;;;;;;5075460;28;20052;-63
2023/01/15 21:59:47;;;;;;;65.13;46.22;;;7.90;99.90;;;;;;5075425;28;20063;-59
2023/01/15 22:02:16;;;;;;;64.57;45.58;;;7.90;99.90;;;;;;5075089;28;20559;-63
2023/01/15 22:04:44;;;;;;;65.97;45.03;;;8.00;99.90;;;;;;5075318;28;20040;-64
2023/01/15 22:07:10;;;;;;;54.88;40.83;;;8.00;99.90;;;;;;5074876;28;20077;-66
2023/01/15 22:09:36;;;;;;;64.93;45.15;;;8.00;99.90;;;;;;5075274;28;20028;-68